sensor_id;sensor_type;location;lat;lon;timestamp;P1;durP1;ratioP1;P2;durP2;ratioP2
52508;SDS011;38420;53.150;6.370;2024-02-14T00:01:16;7.38;;;6.25;;
52508;SDS011;38420;53.150;6.370;2024-02-14T00:03:43;8.73;;;7.13;;
52508;SDS011;38420;53.150;6.370;2024-02-14T00:06:09;8.70;;;7.55;;
52508;SDS011;38420;53.150;6.370;2024-02-14T00:08:37;9.73;;;7.60;;
52508;SDS011;38420;53.150;6.370;2024-02-14T00:11:03;11.10;;;10.07;;
52508;SDS011;38420;53.150;6.370;2024-02-14T00:13:28;10.48;;;9.30;;
52508;SDS011;38420;53.150;6.370;2024-02-14T00:15:54;12.32;;;10.52;;
52508;SDS011;38420;53.150;6.370;2024-02-14T00:18:21;12.32;;;11.35;;
52508;SDS011;38420;53.150;6.370;2024-02-14T00:20:48;15.73;;;14.32;;
52508;SDS011;38420;53.150;6.370;2024-02-14T00:23:13;14.77;;;13.55;;
52508;SDS011;38420;53.150;6.370;2024-02-14T00:25:39;13.32;;;11.90;;
52508;SDS011;38420;53.150;6.370;2024-02-14T00:28:05;12.52;;;11.32;;
52508;SDS011;38420;53.150;6.370;2024-02-14T00:30:31;17.20;;;15.70;;
52508;SDS011;38420;53.150;6.370;2024-02-14T00:32:56;19.30;;;17.30;;
52508;SDS011;38420;53.150;6.370;2024-02-14T00:35:23;20.20;;;18.65;;
52508;SDS011;38420;53.150;6.370;2024-02-14T00:37:49;20.70;;;19.10;;
52508;SDS011;38420;53.150;6.370;2024-02-14T00:40:14;20.33;;;18.92;;
52508;SDS011;38420;53.150;6.370;2024-02-14T00:42:40;20.02;;;18.30;;
52508;SDS011;38420;53.150;6.370;2024-02-14T00:45:06;19.77;;;18.48;;
52508;SDS011;38420;53.150;6.370;2024-02-14T00:47:35;21.63;;;20.13;;
52508;SDS011;38420;53.150;6.370;2024-02-14T00:50:01;22.23;;;20.73;;
52508;SDS011;38420;53.150;6.370;2024-02-14T00:52:27;26.80;;;24.90;;
52508;SDS011;38420;53.150;6.370;2024-02-14T00:54:54;28.92;;;26.75;;
52508;SDS011;38420;53.150;6.370;2024-02-14T00:57:20;26.63;;;24.85;;
52508;SDS011;38420;53.150;6.370;2024-02-14T00:59:45;28.33;;;26.33;;
52508;SDS011;38420;53.150;6.370;2024-02-14T01:02:11;29.33;;;27.35;;
52508;SDS011;38420;53.150;6.370;2024-02-14T01:04:37;30.30;;;28.38;;
52508;SDS011;38420;53.150;6.370;2024-02-14T01:07:03;30.13;;;27.85;;
52508;SDS011;38420;53.150;6.370;2024-02-14T01:09:29;31.85;;;29.85;;
52508;SDS011;38420;53.150;6.370;2024-02-14T01:11:54;31.17;;;29.27;;
52508;SDS011;38420;53.150;6.370;2024-02-14T01:14:20;30.80;;;29.00;;
52508;SDS011;38420;53.150;6.370;2024-02-14T01:16:47;32.03;;;30.05;;
52508;SDS011;38420;53.150;6.370;2024-02-14T01:19:12;30.88;;;28.98;;
52508;SDS011;38420;53.150;6.370;2024-02-14T01:21:38;33.85;;;31.85;;
52508;SDS011;38420;53.150;6.370;2024-02-14T01:24:04;33.72;;;31.75;;
52508;SDS011;38420;53.150;6.370;2024-02-14T01:26:30;33.58;;;31.48;;
52508;SDS011;38420;53.150;6.370;2024-02-14T01:28:57;33.38;;;31.45;;
52508;SDS011;38420;53.150;6.370;2024-02-14T01:31:26;34.75;;;32.75;;
52508;SDS011;38420;53.150;6.370;2024-02-14T01:33:52;35.33;;;33.40;;
52508;SDS011;38420;53.150;6.370;2024-02-14T01:36:18;37.15;;;35.00;;
52508;SDS011;38420;53.150;6.370;2024-02-14T01:38:44;36.75;;;34.55;;
52508;SDS011;38420;53.150;6.370;2024-02-14T01:41:10;39.25;;;36.88;;
52508;SDS011;38420;53.150;6.370;2024-02-14T01:43:35;36.38;;;34.38;;
52508;SDS011;38420;53.150;6.370;2024-02-14T01:46:06;37.13;;;34.83;;
52508;SDS011;38420;53.150;6.370;2024-02-14T01:48:33;37.47;;;35.15;;
52508;SDS011;38420;53.150;6.370;2024-02-14T01:50:59;39.30;;;37.08;;
52508;SDS011;38420;53.150;6.370;2024-02-14T01:53:27;39.65;;;37.30;;
52508;SDS011;38420;53.150;6.370;2024-02-14T01:55:56;40.28;;;37.97;;
52508;SDS011;38420;53.150;6.370;2024-02-14T01:58:23;39.95;;;37.63;;
52508;SDS011;38420;53.150;6.370;2024-02-14T02:00:49;41.83;;;39.08;;
52508;SDS011;38420;53.150;6.370;2024-02-14T02:03:14;41.65;;;39.45;;
52508;SDS011;38420;53.150;6.370;2024-02-14T02:05:40;41.28;;;38.88;;
52508;SDS011;38420;53.150;6.370;2024-02-14T02:08:10;40.83;;;38.50;;
52508;SDS011;38420;53.150;6.370;2024-02-14T02:10:35;41.53;;;39.17;;
52508;SDS011;38420;53.150;6.370;2024-02-14T02:13:02;40.53;;;38.15;;
52508;SDS011;38420;53.150;6.370;2024-02-14T02:15:28;41.42;;;39.20;;
52508;SDS011;38420;53.150;6.370;2024-02-14T02:17:54;42.25;;;40.00;;
52508;SDS011;38420;53.150;6.370;2024-02-14T02:20:21;44.20;;;41.70;;
52508;SDS011;38420;53.150;6.370;2024-02-14T02:22:46;43.35;;;40.88;;
52508;SDS011;38420;53.150;6.370;2024-02-14T02:25:13;42.45;;;40.30;;
52508;SDS011;38420;53.150;6.370;2024-02-14T02:27:39;42.88;;;40.50;;
52508;SDS011;38420;53.150;6.370;2024-02-14T02:30:05;45.17;;;42.65;;
52508;SDS011;38420;53.150;6.370;2024-02-14T02:32:33;43.97;;;41.58;;
52508;SDS011;38420;53.150;6.370;2024-02-14T02:34:59;44.85;;;42.45;;
52508;SDS011;38420;53.150;6.370;2024-02-14T02:37:27;43.97;;;41.53;;
52508;SDS011;38420;53.150;6.370;2024-02-14T02:39:55;44.50;;;42.13;;
52508;SDS011;38420;53.150;6.370;2024-02-14T02:42:21;45.10;;;42.50;;
52508;SDS011;38420;53.150;6.370;2024-02-14T02:44:48;43.28;;;40.80;;
52508;SDS011;38420;53.150;6.370;2024-02-14T02:47:17;41.97;;;39.67;;
52508;SDS011;38420;53.150;6.370;2024-02-14T02:49:43;43.25;;;40.92;;
52508;SDS011;38420;53.150;6.370;2024-02-14T02:52:09;44.22;;;41.92;;
52508;SDS011;38420;53.150;6.370;2024-02-14T02:54:36;46.10;;;43.58;;
52508;SDS011;38420;53.150;6.370;2024-02-14T02:57:02;46.00;;;43.45;;
52508;SDS011;38420;53.150;6.370;2024-02-14T02:59:30;46.17;;;43.70;;
52508;SDS011;38420;53.150;6.370;2024-02-14T03:01:57;45.83;;;43.42;;
52508;SDS011;38420;53.150;6.370;2024-02-14T03:04:24;45.83;;;43.38;;
52508;SDS011;38420;53.150;6.370;2024-02-14T03:06:50;46.95;;;44.47;;
52508;SDS011;38420;53.150;6.370;2024-02-14T03:09:15;45.75;;;43.03;;
52508;SDS011;38420;53.150;6.370;2024-02-14T03:11:45;48.33;;;45.67;;
52508;SDS011;38420;53.150;6.370;2024-02-14T03:14:12;46.13;;;43.53;;
52508;SDS011;38420;53.150;6.370;2024-02-14T03:16:38;48.22;;;45.38;;
52508;SDS011;38420;53.150;6.370;2024-02-14T03:19:04;47.00;;;44.35;;
52508;SDS011;38420;53.150;6.370;2024-02-14T03:21:30;45.72;;;43.10;;
52508;SDS011;38420;53.150;6.370;2024-02-14T03:23:58;45.55;;;43.03;;
52508;SDS011;38420;53.150;6.370;2024-02-14T03:26:23;48.35;;;45.58;;
52508;SDS011;38420;53.150;6.370;2024-02-14T03:28:49;46.78;;;44.08;;
52508;SDS011;38420;53.150;6.370;2024-02-14T03:31:15;45.78;;;43.17;;
52508;SDS011;38420;53.150;6.370;2024-02-14T03:33:41;48.33;;;45.35;;
52508;SDS011;38420;53.150;6.370;2024-02-14T03:36:07;48.25;;;45.45;;
52508;SDS011;38420;53.150;6.370;2024-02-14T03:38:33;49.70;;;46.85;;
52508;SDS011;38420;53.150;6.370;2024-02-14T03:40:59;50.47;;;47.40;;
52508;SDS011;38420;53.150;6.370;2024-02-14T03:43:24;49.90;;;47.22;;
52508;SDS011;38420;53.150;6.370;2024-02-14T03:45:50;47.95;;;45.30;;
52508;SDS011;38420;53.150;6.370;2024-02-14T03:48:16;49.13;;;46.30;;
52508;SDS011;38420;53.150;6.370;2024-02-14T03:50:42;49.92;;;46.95;;
52508;SDS011;38420;53.150;6.370;2024-02-14T03:53:09;50.33;;;47.28;;
52508;SDS011;38420;53.150;6.370;2024-02-14T03:55:39;51.67;;;48.67;;
52508;SDS011;38420;53.150;6.370;2024-02-14T03:58:05;50.70;;;47.83;;
52508;SDS011;38420;53.150;6.370;2024-02-14T04:00:31;52.25;;;49.35;;
52508;SDS011;38420;53.150;6.370;2024-02-14T04:02:57;52.05;;;49.13;;
52508;SDS011;38420;53.150;6.370;2024-02-14T04:05:27;52.17;;;48.97;;
52508;SDS011;38420;53.150;6.370;2024-02-14T04:07:53;50.85;;;47.95;;
52508;SDS011;38420;53.150;6.370;2024-02-14T04:10:20;48.55;;;45.75;;
52508;SDS011;38420;53.150;6.370;2024-02-14T04:12:46;51.90;;;48.88;;
52508;SDS011;38420;53.150;6.370;2024-02-14T04:15:12;48.75;;;45.90;;
52508;SDS011;38420;53.150;6.370;2024-02-14T04:17:39;50.72;;;47.72;;
52508;SDS011;38420;53.150;6.370;2024-02-14T04:20:05;50.92;;;47.92;;
52508;SDS011;38420;53.150;6.370;2024-02-14T04:22:31;51.05;;;48.05;;
52508;SDS011;38420;53.150;6.370;2024-02-14T04:24:56;51.65;;;48.53;;
52508;SDS011;38420;53.150;6.370;2024-02-14T04:27:22;50.30;;;47.28;;
52508;SDS011;38420;53.150;6.370;2024-02-14T04:29:47;45.63;;;42.83;;
52508;SDS011;38420;53.150;6.370;2024-02-14T04:32:14;41.22;;;38.72;;
52508;SDS011;38420;53.150;6.370;2024-02-14T04:34:40;41.25;;;38.75;;
52508;SDS011;38420;53.150;6.370;2024-02-14T04:37:06;43.88;;;41.30;;
52508;SDS011;38420;53.150;6.370;2024-02-14T04:39:38;45.90;;;43.13;;
52508;SDS011;38420;53.150;6.370;2024-02-14T04:42:04;41.97;;;39.47;;
52508;SDS011;38420;53.150;6.370;2024-02-14T04:44:30;45.00;;;42.30;;
52508;SDS011;38420;53.150;6.370;2024-02-14T04:46:56;42.30;;;39.90;;
52508;SDS011;38420;53.150;6.370;2024-02-14T04:49:24;44.17;;;41.60;;
52508;SDS011;38420;53.150;6.370;2024-02-14T04:51:50;44.00;;;41.20;;
52508;SDS011;38420;53.150;6.370;2024-02-14T04:54:16;44.47;;;41.88;;
52508;SDS011;38420;53.150;6.370;2024-02-14T04:56:42;44.55;;;41.85;;
52508;SDS011;38420;53.150;6.370;2024-02-14T04:59:08;44.20;;;41.50;;
52508;SDS011;38420;53.150;6.370;2024-02-14T05:01:34;46.00;;;43.10;;
52508;SDS011;38420;53.150;6.370;2024-02-14T05:04:00;44.78;;;41.97;;
52508;SDS011;38420;53.150;6.370;2024-02-14T05:06:25;48.15;;;45.25;;
52508;SDS011;38420;53.150;6.370;2024-02-14T05:08:51;47.45;;;44.65;;
52508;SDS011;38420;53.150;6.370;2024-02-14T05:11:17;45.08;;;42.38;;
52508;SDS011;38420;53.150;6.370;2024-02-14T05:13:43;45.63;;;42.95;;
52508;SDS011;38420;53.150;6.370;2024-02-14T05:16:09;47.30;;;44.40;;
52508;SDS011;38420;53.150;6.370;2024-02-14T05:18:38;44.42;;;41.72;;
52508;SDS011;38420;53.150;6.370;2024-02-14T05:21:05;44.58;;;41.92;;
52508;SDS011;38420;53.150;6.370;2024-02-14T05:23:32;44.38;;;41.70;;
52508;SDS011;38420;53.150;6.370;2024-02-14T05:25:57;47.03;;;44.33;;
52508;SDS011;38420;53.150;6.370;2024-02-14T05:28:23;49.42;;;46.33;;
52508;SDS011;38420;53.150;6.370;2024-02-14T05:30:48;45.92;;;43.20;;
52508;SDS011;38420;53.150;6.370;2024-02-14T05:33:14;44.90;;;42.10;;
52508;SDS011;38420;53.150;6.370;2024-02-14T05:35:40;45.42;;;42.72;;
52508;SDS011;38420;53.150;6.370;2024-02-14T05:38:05;44.83;;;42.03;;
52508;SDS011;38420;53.150;6.370;2024-02-14T05:40:33;46.85;;;43.90;;
52508;SDS011;38420;53.150;6.370;2024-02-14T05:42:58;46.80;;;44.13;;
52508;SDS011;38420;53.150;6.370;2024-02-14T05:45:24;45.22;;;42.72;;
52508;SDS011;38420;53.150;6.370;2024-02-14T05:47:50;46.72;;;44.03;;
52508;SDS011;38420;53.150;6.370;2024-02-14T05:50:16;46.15;;;43.50;;
52508;SDS011;38420;53.150;6.370;2024-02-14T05:52:42;47.55;;;44.85;;
52508;SDS011;38420;53.150;6.370;2024-02-14T05:55:08;46.40;;;43.58;;
52508;SDS011;38420;53.150;6.370;2024-02-14T05:57:34;46.70;;;44.10;;
52508;SDS011;38420;53.150;6.370;2024-02-14T06:00:00;45.97;;;43.45;;
52508;SDS011;38420;53.150;6.370;2024-02-14T06:02:25;45.15;;;42.65;;
52508;SDS011;38420;53.150;6.370;2024-02-14T06:04:51;46.08;;;43.38;;
52508;SDS011;38420;53.150;6.370;2024-02-14T06:07:16;47.92;;;44.90;;
52508;SDS011;38420;53.150;6.370;2024-02-14T06:09:42;47.83;;;44.67;;
52508;SDS011;38420;53.150;6.370;2024-02-14T06:12:08;51.90;;;47.85;;
52508;SDS011;38420;53.150;6.370;2024-02-14T06:14:33;54.58;;;49.72;;
52508;SDS011;38420;53.150;6.370;2024-02-14T06:17:00;53.13;;;49.35;;
52508;SDS011;38420;53.150;6.370;2024-02-14T06:19:28;54.17;;;49.33;;
52508;SDS011;38420;53.150;6.370;2024-02-14T06:21:55;58.03;;;52.42;;
52508;SDS011;38420;53.150;6.370;2024-02-14T06:24:21;55.08;;;49.47;;
52508;SDS011;38420;53.150;6.370;2024-02-14T06:26:47;53.13;;;47.70;;
52508;SDS011;38420;53.150;6.370;2024-02-14T06:29:13;55.33;;;50.42;;
52508;SDS011;38420;53.150;6.370;2024-02-14T06:31:38;50.97;;;47.33;;
52508;SDS011;38420;53.150;6.370;2024-02-14T06:34:04;49.42;;;44.83;;
52508;SDS011;38420;53.150;6.370;2024-02-14T06:36:32;50.05;;;45.75;;
52508;SDS011;38420;53.150;6.370;2024-02-14T06:38:57;51.95;;;47.95;;
52508;SDS011;38420;53.150;6.370;2024-02-14T06:41:23;51.60;;;47.97;;
52508;SDS011;38420;53.150;6.370;2024-02-14T06:43:49;50.75;;;46.55;;
52508;SDS011;38420;53.150;6.370;2024-02-14T06:46:14;48.90;;;45.30;;
52508;SDS011;38420;53.150;6.370;2024-02-14T06:48:40;52.30;;;48.13;;
52508;SDS011;38420;53.150;6.370;2024-02-14T06:51:06;51.50;;;47.03;;
52508;SDS011;38420;53.150;6.370;2024-02-14T06:53:33;53.35;;;48.30;;
52508;SDS011;38420;53.150;6.370;2024-02-14T06:55:58;53.05;;;48.58;;
52508;SDS011;38420;53.150;6.370;2024-02-14T06:58:24;54.67;;;49.75;;
52508;SDS011;38420;53.150;6.370;2024-02-14T07:00:50;54.83;;;49.47;;
52508;SDS011;38420;53.150;6.370;2024-02-14T07:03:15;52.53;;;47.15;;
52508;SDS011;38420;53.150;6.370;2024-02-14T07:05:41;52.15;;;47.00;;
52508;SDS011;38420;53.150;6.370;2024-02-14T07:08:07;51.70;;;47.22;;
52508;SDS011;38420;53.150;6.370;2024-02-14T07:10:33;52.85;;;47.40;;
52508;SDS011;38420;53.150;6.370;2024-02-14T07:12:58;53.03;;;47.83;;
52508;SDS011;38420;53.150;6.370;2024-02-14T07:15:24;55.45;;;50.03;;
52508;SDS011;38420;53.150;6.370;2024-02-14T07:17:53;54.00;;;48.65;;
52508;SDS011;38420;53.150;6.370;2024-02-14T07:20:20;52.83;;;48.13;;
52508;SDS011;38420;53.150;6.370;2024-02-14T07:22:46;54.50;;;49.05;;
52508;SDS011;38420;53.150;6.370;2024-02-14T07:25:18;55.22;;;49.92;;
52508;SDS011;38420;53.150;6.370;2024-02-14T07:27:44;54.20;;;48.95;;
52508;SDS011;38420;53.150;6.370;2024-02-14T07:30:11;52.25;;;47.65;;
52508;SDS011;38420;53.150;6.370;2024-02-14T07:32:37;48.42;;;43.83;;
52508;SDS011;38420;53.150;6.370;2024-02-14T07:35:03;44.97;;;40.72;;
52508;SDS011;38420;53.150;6.370;2024-02-14T07:37:30;50.22;;;42.47;;
52508;SDS011;38420;53.150;6.370;2024-02-14T07:39:56;51.60;;;43.72;;
52508;SDS011;38420;53.150;6.370;2024-02-14T07:42:21;50.15;;;45.78;;
52508;SDS011;38420;53.150;6.370;2024-02-14T07:44:47;49.90;;;44.85;;
52508;SDS011;38420;53.150;6.370;2024-02-14T07:47:13;49.75;;;44.78;;
52508;SDS011;38420;53.150;6.370;2024-02-14T07:49:39;48.65;;;44.08;;
52508;SDS011;38420;53.150;6.370;2024-02-14T07:52:05;49.42;;;44.15;;
52508;SDS011;38420;53.150;6.370;2024-02-14T07:54:31;47.97;;;43.20;;
52508;SDS011;38420;53.150;6.370;2024-02-14T07:56:57;52.75;;;44.15;;
52508;SDS011;38420;53.150;6.370;2024-02-14T07:59:23;48.13;;;43.17;;
52508;SDS011;38420;53.150;6.370;2024-02-14T08:01:48;53.05;;;43.53;;
52508;SDS011;38420;53.150;6.370;2024-02-14T08:04:14;50.38;;;45.35;;
52508;SDS011;38420;53.150;6.370;2024-02-14T08:06:40;57.90;;;46.13;;
52508;SDS011;38420;53.150;6.370;2024-02-14T08:09:06;50.95;;;46.13;;
52508;SDS011;38420;53.150;6.370;2024-02-14T08:11:35;52.35;;;46.53;;
52508;SDS011;38420;53.150;6.370;2024-02-14T08:14:01;49.55;;;44.45;;
52508;SDS011;38420;53.150;6.370;2024-02-14T08:16:27;50.63;;;45.88;;
52508;SDS011;38420;53.150;6.370;2024-02-14T08:18:52;47.42;;;43.17;;
52508;SDS011;38420;53.150;6.370;2024-02-14T08:21:24;50.72;;;44.42;;
52508;SDS011;38420;53.150;6.370;2024-02-14T08:23:51;51.85;;;46.20;;
52508;SDS011;38420;53.150;6.370;2024-02-14T08:26:17;51.50;;;46.40;;
52508;SDS011;38420;53.150;6.370;2024-02-14T08:28:43;49.08;;;44.58;;
52508;SDS011;38420;53.150;6.370;2024-02-14T08:31:09;50.83;;;45.42;;
52508;SDS011;38420;53.150;6.370;2024-02-14T08:33:36;49.13;;;44.53;;
52508;SDS011;38420;53.150;6.370;2024-02-14T08:36:02;49.72;;;45.35;;
52508;SDS011;38420;53.150;6.370;2024-02-14T08:38:29;49.53;;;45.25;;
52508;SDS011;38420;53.150;6.370;2024-02-14T08:40:54;52.78;;;48.40;;
52508;SDS011;38420;53.150;6.370;2024-02-14T08:43:20;47.88;;;43.78;;
52508;SDS011;38420;53.150;6.370;2024-02-14T08:45:49;47.55;;;44.00;;
52508;SDS011;38420;53.150;6.370;2024-02-14T08:48:16;48.70;;;44.95;;
52508;SDS011;38420;53.150;6.370;2024-02-14T08:50:42;48.53;;;43.75;;
52508;SDS011;38420;53.150;6.370;2024-02-14T08:53:08;51.10;;;46.47;;
52508;SDS011;38420;53.150;6.370;2024-02-14T08:55:34;48.22;;;44.13;;
52508;SDS011;38420;53.150;6.370;2024-02-14T08:58:01;51.40;;;47.15;;
52508;SDS011;38420;53.150;6.370;2024-02-14T09:00:27;49.30;;;45.15;;
52508;SDS011;38420;53.150;6.370;2024-02-14T09:02:52;55.33;;;50.58;;
52508;SDS011;38420;53.150;6.370;2024-02-14T09:05:18;52.35;;;47.97;;
52508;SDS011;38420;53.150;6.370;2024-02-14T09:07:44;52.90;;;47.88;;
52508;SDS011;38420;53.150;6.370;2024-02-14T09:10:10;53.15;;;48.50;;
52508;SDS011;38420;53.150;6.370;2024-02-14T09:12:38;52.45;;;47.42;;
52508;SDS011;38420;53.150;6.370;2024-02-14T09:15:05;53.28;;;48.25;;
52508;SDS011;38420;53.150;6.370;2024-02-14T09:17:31;63.42;;;51.05;;
52508;SDS011;38420;53.150;6.370;2024-02-14T09:19:57;55.25;;;50.55;;
52508;SDS011;38420;53.150;6.370;2024-02-14T09:22:22;53.53;;;49.33;;
52508;SDS011;38420;53.150;6.370;2024-02-14T09:24:48;53.78;;;49.00;;
52508;SDS011;38420;53.150;6.370;2024-02-14T09:27:15;54.25;;;49.05;;
52508;SDS011;38420;53.150;6.370;2024-02-14T09:29:41;53.90;;;48.92;;
52508;SDS011;38420;53.150;6.370;2024-02-14T09:32:07;51.05;;;46.42;;
52508;SDS011;38420;53.150;6.370;2024-02-14T09:34:34;49.95;;;46.25;;
52508;SDS011;38420;53.150;6.370;2024-02-14T09:36:59;49.08;;;44.30;;
52508;SDS011;38420;53.150;6.370;2024-02-14T09:39:25;49.00;;;45.17;;
52508;SDS011;38420;53.150;6.370;2024-02-14T09:41:52;49.17;;;44.78;;
52508;SDS011;38420;53.150;6.370;2024-02-14T09:44:24;47.63;;;43.45;;
52508;SDS011;38420;53.150;6.370;2024-02-14T09:46:53;49.13;;;45.42;;
52508;SDS011;38420;53.150;6.370;2024-02-14T09:49:20;50.22;;;46.53;;
52508;SDS011;38420;53.150;6.370;2024-02-14T09:51:46;48.13;;;43.88;;
52508;SDS011;38420;53.150;6.370;2024-02-14T09:54:14;45.58;;;42.33;;
52508;SDS011;38420;53.150;6.370;2024-02-14T09:56:42;46.80;;;42.70;;
52508;SDS011;38420;53.150;6.370;2024-02-14T09:59:19;49.67;;;46.03;;
52508;SDS011;38420;53.150;6.370;2024-02-14T10:01:46;48.35;;;44.55;;
52508;SDS011;38420;53.150;6.370;2024-02-14T10:04:14;49.60;;;46.25;;
52508;SDS011;38420;53.150;6.370;2024-02-14T10:06:40;48.05;;;44.13;;
52508;SDS011;38420;53.150;6.370;2024-02-14T10:09:06;47.33;;;43.85;;
52508;SDS011;38420;53.150;6.370;2024-02-14T10:11:32;51.38;;;47.25;;
52508;SDS011;38420;53.150;6.370;2024-02-14T10:13:58;49.80;;;45.58;;
52508;SDS011;38420;53.150;6.370;2024-02-14T10:16:28;48.85;;;45.38;;
52508;SDS011;38420;53.150;6.370;2024-02-14T10:18:54;52.75;;;48.53;;
52508;SDS011;38420;53.150;6.370;2024-02-14T10:21:20;49.40;;;45.53;;
52508;SDS011;38420;53.150;6.370;2024-02-14T10:23:47;48.00;;;44.80;;
52508;SDS011;38420;53.150;6.370;2024-02-14T10:26:17;48.95;;;45.67;;
52508;SDS011;38420;53.150;6.370;2024-02-14T10:28:43;47.42;;;44.42;;
52508;SDS011;38420;53.150;6.370;2024-02-14T10:31:23;48.20;;;44.83;;
52508;SDS011;38420;53.150;6.370;2024-02-14T10:33:50;48.53;;;45.40;;
52508;SDS011;38420;53.150;6.370;2024-02-14T10:36:21;47.05;;;44.30;;
52508;SDS011;38420;53.150;6.370;2024-02-14T10:38:47;47.53;;;44.55;;
52508;SDS011;38420;53.150;6.370;2024-02-14T10:41:15;45.95;;;43.33;;
52508;SDS011;38420;53.150;6.370;2024-02-14T10:43:42;49.05;;;46.08;;
52508;SDS011;38420;53.150;6.370;2024-02-14T10:46:12;46.75;;;44.15;;
52508;SDS011;38420;53.150;6.370;2024-02-14T10:48:45;46.20;;;43.50;;
52508;SDS011;38420;53.150;6.370;2024-02-14T10:51:11;50.15;;;47.05;;
52508;SDS011;38420;53.150;6.370;2024-02-14T10:53:39;48.83;;;45.85;;
52508;SDS011;38420;53.150;6.370;2024-02-14T10:56:10;48.63;;;45.50;;
52508;SDS011;38420;53.150;6.370;2024-02-14T10:58:40;50.85;;;46.97;;
52508;SDS011;38420;53.150;6.370;2024-02-14T11:01:07;51.25;;;47.78;;
52508;SDS011;38420;53.150;6.370;2024-02-14T11:03:34;51.83;;;48.35;;
52508;SDS011;38420;53.150;6.370;2024-02-14T11:06:01;50.92;;;47.17;;
52508;SDS011;38420;53.150;6.370;2024-02-14T11:08:29;51.90;;;48.58;;
52508;SDS011;38420;53.150;6.370;2024-02-14T11:10:58;51.33;;;47.72;;
52508;SDS011;38420;53.150;6.370;2024-02-14T11:13:35;50.10;;;46.80;;
52508;SDS011;38420;53.150;6.370;2024-02-14T11:16:01;50.65;;;47.25;;
52508;SDS011;38420;53.150;6.370;2024-02-14T11:18:28;51.15;;;47.95;;
52508;SDS011;38420;53.150;6.370;2024-02-14T11:20:58;53.50;;;50.00;;
52508;SDS011;38420;53.150;6.370;2024-02-14T11:23:24;51.90;;;48.50;;
52508;SDS011;38420;53.150;6.370;2024-02-14T11:25:58;48.70;;;45.70;;
52508;SDS011;38420;53.150;6.370;2024-02-14T11:28:40;48.88;;;45.90;;
52508;SDS011;38420;53.150;6.370;2024-02-14T11:31:06;51.53;;;48.33;;
52508;SDS011;38420;53.150;6.370;2024-02-14T11:33:34;48.83;;;45.53;;
52508;SDS011;38420;53.150;6.370;2024-02-14T11:36:07;46.80;;;43.70;;
52508;SDS011;38420;53.150;6.370;2024-02-14T11:38:36;47.60;;;44.30;;
52508;SDS011;38420;53.150;6.370;2024-02-14T11:41:02;45.97;;;43.13;;
52508;SDS011;38420;53.150;6.370;2024-02-14T11:43:28;46.58;;;43.72;;
52508;SDS011;38420;53.150;6.370;2024-02-14T11:45:54;47.28;;;44.38;;
52508;SDS011;38420;53.150;6.370;2024-02-14T11:48:20;45.63;;;42.95;;
52508;SDS011;38420;53.150;6.370;2024-02-14T11:50:48;45.10;;;42.50;;
52508;SDS011;38420;53.150;6.370;2024-02-14T11:53:14;43.30;;;40.90;;
52508;SDS011;38420;53.150;6.370;2024-02-14T11:55:47;44.13;;;41.42;;
52508;SDS011;38420;53.150;6.370;2024-02-14T11:58:13;44.38;;;41.97;;
52508;SDS011;38420;53.150;6.370;2024-02-14T12:00:41;41.05;;;38.70;;
52508;SDS011;38420;53.150;6.370;2024-02-14T12:03:12;43.67;;;41.13;;
52508;SDS011;38420;53.150;6.370;2024-02-14T12:05:40;45.28;;;42.67;;
52508;SDS011;38420;53.150;6.370;2024-02-14T12:08:08;44.55;;;41.95;;
52508;SDS011;38420;53.150;6.370;2024-02-14T12:10:35;45.08;;;42.53;;
52508;SDS011;38420;53.150;6.370;2024-02-14T12:13:09;43.70;;;41.30;;
52508;SDS011;38420;53.150;6.370;2024-02-14T12:15:39;45.83;;;43.20;;
52508;SDS011;38420;53.150;6.370;2024-02-14T12:18:05;43.10;;;40.60;;
52508;SDS011;38420;53.150;6.370;2024-02-14T12:20:32;44.60;;;42.03;;
52508;SDS011;38420;53.150;6.370;2024-02-14T12:22:59;44.88;;;41.97;;
52508;SDS011;38420;53.150;6.370;2024-02-14T12:25:25;43.65;;;40.92;;
52508;SDS011;38420;53.150;6.370;2024-02-14T12:27:51;46.38;;;43.58;;
52508;SDS011;38420;53.150;6.370;2024-02-14T12:30:18;45.25;;;42.47;;
52508;SDS011;38420;53.150;6.370;2024-02-14T12:32:46;43.65;;;40.90;;
52508;SDS011;38420;53.150;6.370;2024-02-14T12:35:23;44.45;;;41.83;;
52508;SDS011;38420;53.150;6.370;2024-02-14T12:37:50;43.88;;;41.25;;
52508;SDS011;38420;53.150;6.370;2024-02-14T12:40:15;45.45;;;42.47;;
52508;SDS011;38420;53.150;6.370;2024-02-14T12:42:41;43.60;;;41.13;;
52508;SDS011;38420;53.150;6.370;2024-02-14T12:45:07;45.85;;;43.15;;
52508;SDS011;38420;53.150;6.370;2024-02-14T12:47:34;44.65;;;42.03;;
52508;SDS011;38420;53.150;6.370;2024-02-14T12:50:00;42.88;;;40.40;;
52508;SDS011;38420;53.150;6.370;2024-02-14T12:52:26;42.53;;;40.15;;
52508;SDS011;38420;53.150;6.370;2024-02-14T12:54:52;43.15;;;40.72;;
52508;SDS011;38420;53.150;6.370;2024-02-14T12:57:18;42.30;;;40.00;;
52508;SDS011;38420;53.150;6.370;2024-02-14T12:59:46;43.58;;;41.17;;
52508;SDS011;38420;53.150;6.370;2024-02-14T13:02:11;42.97;;;40.63;;
52508;SDS011;38420;53.150;6.370;2024-02-14T13:04:37;40.50;;;38.35;;
52508;SDS011;38420;53.150;6.370;2024-02-14T13:07:04;42.35;;;39.95;;
52508;SDS011;38420;53.150;6.370;2024-02-14T13:09:30;42.72;;;40.28;;
52508;SDS011;38420;53.150;6.370;2024-02-14T13:11:55;46.10;;;43.33;;
52508;SDS011;38420;53.150;6.370;2024-02-14T13:14:21;45.80;;;43.10;;
52508;SDS011;38420;53.150;6.370;2024-02-14T13:16:47;45.97;;;43.25;;
52508;SDS011;38420;53.150;6.370;2024-02-14T13:19:12;47.67;;;44.78;;
52508;SDS011;38420;53.150;6.370;2024-02-14T13:21:38;48.72;;;45.90;;
52508;SDS011;38420;53.150;6.370;2024-02-14T13:24:05;45.65;;;42.97;;
52508;SDS011;38420;53.150;6.370;2024-02-14T13:26:30;44.88;;;42.38;;
52508;SDS011;38420;53.150;6.370;2024-02-14T13:28:56;46.85;;;44.10;;
52508;SDS011;38420;53.150;6.370;2024-02-14T13:31:22;45.63;;;42.95;;
52508;SDS011;38420;53.150;6.370;2024-02-14T13:33:47;45.90;;;43.08;;
52508;SDS011;38420;53.150;6.370;2024-02-14T13:36:13;45.75;;;43.08;;
52508;SDS011;38420;53.150;6.370;2024-02-14T13:38:41;44.50;;;41.90;;
52508;SDS011;38420;53.150;6.370;2024-02-14T13:41:09;44.53;;;41.85;;
52508;SDS011;38420;53.150;6.370;2024-02-14T13:43:36;44.85;;;41.95;;
52508;SDS011;38420;53.150;6.370;2024-02-14T13:46:02;44.97;;;42.30;;
52508;SDS011;38420;53.150;6.370;2024-02-14T13:48:28;44.50;;;41.50;;
52508;SDS011;38420;53.150;6.370;2024-02-14T13:50:53;43.63;;;41.03;;
52508;SDS011;38420;53.150;6.370;2024-02-14T13:53:19;43.80;;;41.00;;
52508;SDS011;38420;53.150;6.370;2024-02-14T13:55:47;46.50;;;43.40;;
52508;SDS011;38420;53.150;6.370;2024-02-14T13:58:13;47.47;;;44.38;;
52508;SDS011;38420;53.150;6.370;2024-02-14T14:00:42;47.20;;;44.10;;
52508;SDS011;38420;53.150;6.370;2024-02-14T14:03:07;49.60;;;46.30;;
52508;SDS011;38420;53.150;6.370;2024-02-14T14:05:33;49.65;;;46.58;;
52508;SDS011;38420;53.150;6.370;2024-02-14T14:07:59;50.85;;;47.80;;
52508;SDS011;38420;53.150;6.370;2024-02-14T14:10:28;50.03;;;46.72;;
52508;SDS011;38420;53.150;6.370;2024-02-14T14:12:54;49.78;;;46.42;;
52508;SDS011;38420;53.150;6.370;2024-02-14T14:15:20;49.05;;;46.15;;
52508;SDS011;38420;53.150;6.370;2024-02-14T14:17:47;50.20;;;47.08;;